Station Historical Data
Daily Summary for May 22, 2017 Units:  English    Metric   Both
Next Day »
Daily Weekly Monthly Yearly Custom
  High: Low: Average:
Temperature: 85.0 °F 64.0 °F 73.5 °F
Dew Point: 57.2 °F 41.1 °F 50.8 °F
Humidity: 59% 31% 46%
Wind Speed: 10.0mph 0.0mph 1mph
Wind Gust: 12.0mph - -
Wind- - SSE
Pressure: 29.96 in 29.92 in -
Precipitation: 0.00 in    
Historical Graphs
 
 
Tabular Data for May 22, 2017
Time Temperature Dew Point Pressure Wind Wind Speed Wind Gust Humidity Rainfall Rate (Hourly) solar Conditions
00:01 67.6 °F 49.9 °F 29.96 in ESE 1.0 mph 1.0 mph 53% 0.00 in 0.00 W/m2
00:06 67.5 °F 49.8 °F 29.96 in East 2.0 mph 2.0 mph 53% 0.00 in 0.00 W/m2
00:11 67.5 °F 49.8 °F 29.96 in ESE 2.0 mph 2.0 mph 53% 0.00 in 0.00 W/m2
00:16 67.4 °F 50.2 °F 29.96 in East 1.0 mph 4.0 mph 54% 0.00 in 0.00 W/m2
00:21 67.3 °F 50.1 °F 29.96 in East 1.0 mph 1.0 mph 54% 0.00 in 0.00 W/m2
00:26 67.2 °F 50.0 °F 29.96 in East 1.0 mph 5.0 mph 54% 0.00 in 0.00 W/m2
00:31 67.2 °F 49.5 °F 29.96 in ESE 4.0 mph 5.0 mph 53% 0.00 in 0.00 W/m2
00:36 67.1 °F 49.9 °F 29.96 in Calm   1.0 mph 54% 0.00 in 0.00 W/m2
00:41 67.1 °F 49.9 °F 29.96 in East 2.0 mph 6.0 mph 54% 0.00 in 0.00 W/m2
00:51 67.0 °F 49.3 °F 29.96 in ESE 1.0 mph 1.0 mph 53% 0.00 in 0.00 W/m2
00:56 66.9 °F 49.7 °F 29.96 in East 2.0 mph 5.0 mph 54% 0.00 in 0.00 W/m2
01:01 66.8 °F 49.1 °F 29.96 in Calm   4.0 mph 53% 0.00 in 0.00 W/m2
01:06 66.8 °F 49.6 °F 29.95 in East 4.0 mph 4.0 mph 54% 0.00 in 0.00 W/m2
01:11 66.7 °F 49.5 °F 29.96 in Calm   2.0 mph 54% 0.00 in 0.00 W/m2
01:16 66.7 °F 49.5 °F 29.96 in East 1.0 mph 5.0 mph 54% 0.00 in 0.00 W/m2
01:21 66.6 °F 50.0 °F 29.95 in Calm   4.0 mph 55% 0.00 in 0.00 W/m2
01:27 66.5 °F 49.8 °F 29.95 in East 1.0 mph 5.0 mph 55% 0.00 in 0.00 W/m2
01:32 66.4 °F 49.8 °F 29.95 in East 1.0 mph 6.0 mph 55% 0.00 in 0.00 W/m2
01:37 66.3 °F 49.7 °F 29.95 in ESE 1.0 mph 8.0 mph 55% 0.00 in 0.00 W/m2
01:42 66.2 °F 49.6 °F 29.95 in East 1.0 mph 7.0 mph 55% 0.00 in 0.00 W/m2
01:47 66.1 °F 49.5 °F 29.95 in East 1.0 mph 7.0 mph 55% 0.00 in 0.00 W/m2
01:52 66.0 °F 49.4 °F 29.95 in Calm   6.0 mph 55% 0.00 in 0.00 W/m2
01:57 65.9 °F 49.3 °F 29.95 in ESE 2.0 mph 6.0 mph 55% 0.00 in 0.00 W/m2
02:02 65.9 °F 49.8 °F 29.95 in Calm   4.0 mph 56% 0.00 in 0.00 W/m2
02:07 65.8 °F 49.7 °F 29.95 in ESE 2.0 mph 6.0 mph 56% 0.00 in 0.00 W/m2
02:12 65.7 °F 49.1 °F 29.95 in East 2.0 mph 8.0 mph 55% 0.00 in 0.00 W/m2
02:17 65.6 °F 49.5 °F 29.95 in ESE 6.0 mph 8.0 mph 56% 0.00 in 0.00 W/m2
02:22 65.5 °F 48.9 °F 29.95 in ESE 4.0 mph 5.0 mph 55% 0.00 in 0.00 W/m2
02:27 65.5 °F 48.9 °F 29.95 in ESE 4.0 mph 7.0 mph 55% 0.00 in 0.00 W/m2
02:32 65.4 °F 48.8 °F 29.94 in ESE 4.0 mph 7.0 mph 55% 0.00 in 0.00 W/m2
02:37 65.4 °F 48.8 °F 29.94 in ESE 1.0 mph 5.0 mph 55% 0.00 in 0.00 W/m2
02:42 65.4 °F 48.3 °F 29.94 in Calm   8.0 mph 54% 0.00 in 0.00 W/m2
02:47 65.4 °F 47.3 °F 29.94 in ESE 6.0 mph 6.0 mph 52% 0.00 in 0.00 W/m2
02:52 65.4 °F 48.3 °F 29.94 in ESE 4.0 mph 7.0 mph 54% 0.00 in 0.00 W/m2
02:57 65.3 °F 48.2 °F 29.94 in East 1.0 mph 9.0 mph 54% 0.00 in 0.00 W/m2
03:02 65.2 °F 48.2 °F 29.94 in East 7.0 mph 10.0 mph 54% 0.00 in 0.00 W/m2
03:07 65.1 °F 47.6 °F 29.94 in Calm   6.0 mph 53% 0.00 in 0.00 W/m2
03:12 65.1 °F 47.1 °F 29.94 in Calm   8.0 mph 52% 0.00 in 0.00 W/m2
03:17 65.0 °F 47.5 °F 29.93 in ESE 1.0 mph 2.0 mph 53% 0.00 in 0.00 W/m2
03:22 65.0 °F 47.5 °F 29.93 in Calm   5.0 mph 53% 0.00 in 0.00 W/m2
03:27 65.0 °F 47.5 °F 29.94 in East 3.0 mph 5.0 mph 53% 0.00 in 0.00 W/m2
03:32 64.9 °F 47.4 °F 29.94 in East 1.0 mph 6.0 mph 53% 0.00 in 0.00 W/m2
03:37 64.9 °F 46.4 °F 29.94 in Calm   5.0 mph 51% 0.00 in 0.00 W/m2
03:42 64.9 °F 46.4 °F 29.94 in East 1.0 mph 2.0 mph 51% 0.00 in 0.00 W/m2
03:47 64.9 °F 46.4 °F 29.94 in East 1.0 mph 2.0 mph 51% 0.00 in 0.00 W/m2
03:52 64.9 °F 45.3 °F 29.93 in Calm   1.0 mph 49% 0.00 in 0.00 W/m2
03:57 64.9 °F 45.3 °F 29.93 in Calm   2.0 mph 49% 0.00 in 0.00 W/m2
04:02 64.9 °F 44.8 °F 29.93 in Calm   1.0 mph 48% 0.00 in 0.00 W/m2
04:07 64.9 °F 44.8 °F 29.93 in Calm   4.0 mph 48% 0.00 in 0.00 W/m2
04:12 64.9 °F 45.3 °F 29.93 in Calm   5.0 mph 49% 0.00 in 0.00 W/m2
04:17 64.9 °F 44.8 °F 29.93 in Calm   1.0 mph 48% 0.00 in 0.00 W/m2
04:22 64.9 °F 45.3 °F 29.93 in Calm   1.0 mph 49% 0.00 in 0.00 W/m2
04:27 64.8 °F 44.7 °F 29.93 in East 2.0 mph 3.0 mph 48% 0.00 in 0.00 W/m2
04:32 64.8 °F 43.6 °F 29.93 in East 2.0 mph 4.0 mph 46% 0.00 in 0.00 W/m2
04:37 64.8 °F 43.0 °F 29.93 in East 1.0 mph 4.0 mph 45% 0.00 in 0.00 W/m2
04:42 64.8 °F 43.6 °F 29.92 in ENE 2.0 mph 3.0 mph 46% 0.00 in 0.00 W/m2
04:47 64.8 °F 43.0 °F 29.93 in Calm   2.0 mph 45% 0.00 in 0.00 W/m2
04:52 64.8 °F 43.6 °F 29.93 in Calm   2.0 mph 46% 0.00 in 0.00 W/m2
04:57 64.8 °F 43.6 °F 29.93 in ENE 1.0 mph 1.0 mph 46% 0.00 in 0.00 W/m2
05:02 64.8 °F 43.0 °F 29.93 in Calm   1.0 mph 45% 0.00 in 0.00 W/m2
05:07 64.8 °F 41.8 °F 29.93 in Calm   1.0 mph 43% 0.00 in 0.00 W/m2
05:12 64.8 °F 43.0 °F 29.93 in ENE 1.0 mph 1.0 mph 45% 0.00 in 0.00 W/m2
05:14 64.7 °F 42.9 °F 29.93 in Calm   1.0 mph 45% 0.00 in 0.00 W/m2
05:19 64.7 °F 42.3 °F 29.93 in Calm   2.0 mph 44% 0.00 in 0.00 W/m2
05:24 64.6 °F 42.8 °F 29.93 in ENE 1.0 mph 1.0 mph 45% 0.00 in 0.00 W/m2
05:29 64.5 °F 42.7 °F 29.93 in Calm   1.0 mph 45% 0.00 in 0.00 W/m2
05:34 64.4 °F 42.6 °F 29.93 in Calm   1.0 mph 45% 0.00 in 0.00 W/m2
05:39 64.3 °F 41.9 °F 29.93 in Calm   1.0 mph 44% 0.00 in 0.00 W/m2
05:44 64.2 °F 41.8 °F 29.93 in Calm     44% 0.00 in 0.00 W/m2
05:49 64.1 °F 41.2 °F 29.93 in Calm     43% 0.00 in 5.00 W/m2
05:54 64.1 °F 41.8 °F 29.93 in Calm     44% 0.00 in 7.00 W/m2
05:59 64.1 °F 42.3 °F 29.93 in Calm     45% 0.00 in 12.00 W/m2
06:04 64.0 °F 42.8 °F 29.93 in East 1.0 mph 3.0 mph 46% 0.00 in 14.00 W/m2
06:09 64.0 °F 42.3 °F 29.93 in East 1.0 mph 3.0 mph 45% 0.00 in 16.00 W/m2
06:14 64.0 °F 42.3 °F 29.94 in Calm   1.0 mph 45% 0.00 in 21.00 W/m2
06:19 64.0 °F 41.7 °F 29.94 in East 1.0 mph 2.0 mph 44% 0.00 in 30.00 W/m2
06:24 64.0 °F 41.1 °F 29.94 in Calm   2.0 mph 43% 0.00 in 40.00 W/m2
06:29 64.1 °F 41.8 °F 29.94 in East 1.0 mph 2.0 mph 44% 0.00 in 53.00 W/m2
06:34 64.1 °F 41.8 °F 29.94 in Calm   2.0 mph 44% 0.00 in 69.00 W/m2
06:39 64.1 °F 42.3 °F 29.94 in East 1.0 mph 5.0 mph 45% 0.00 in 83.00 W/m2
06:44 64.1 °F 42.3 °F 29.94 in East 2.0 mph 6.0 mph 45% 0.00 in 98.00 W/m2
06:49 64.2 °F 43.0 °F 29.94 in East 2.0 mph 4.0 mph 46% 0.00 in 116.00 W/m2
06:54 64.2 °F 43.0 °F 29.94 in East 2.0 mph 4.0 mph 46% 0.00 in 134.00 W/m2
06:59 64.2 °F 43.6 °F 29.94 in East 1.0 mph 4.0 mph 47% 0.00 in 151.00 W/m2
07:04 64.3 °F 43.7 °F 29.94 in East 1.0 mph 2.0 mph 47% 0.00 in 172.00 W/m2
07:09 64.4 °F 44.3 °F 29.94 in East 2.0 mph 4.0 mph 48% 0.00 in 193.00 W/m2
07:14 64.4 °F 44.8 °F 29.94 in East 1.0 mph 5.0 mph 49% 0.00 in 214.00 W/m2
07:19 64.5 °F 44.9 °F 29.94 in Calm   4.0 mph 49% 0.00 in 236.00 W/m2
07:24 64.5 °F 44.9 °F 29.94 in Calm   4.0 mph 49% 0.00 in 257.00 W/m2
07:29 64.6 °F 45.6 °F 29.94 in East 4.0 mph 6.0 mph 50% 0.00 in 276.00 W/m2
07:34 64.7 °F 46.2 °F 29.94 in Calm   7.0 mph 51% 0.00 in 292.00 W/m2
07:39 64.8 °F 45.7 °F 29.94 in East 2.0 mph 7.0 mph 50% 0.00 in 308.00 W/m2
07:44 64.9 °F 46.4 °F 29.94 in East 1.0 mph 6.0 mph 51% 0.00 in 325.00 W/m2
07:49 65.0 °F 45.9 °F 29.94 in ENE 3.0 mph 7.0 mph 50% 0.00 in 343.00 W/m2
07:54 65.1 °F 46.0 °F 29.94 in ENE 2.0 mph 5.0 mph 50% 0.00 in 359.00 W/m2
07:59 65.2 °F 46.6 °F 29.94 in East 3.0 mph 5.0 mph 51% 0.00 in 376.00 W/m2
08:04 65.4 °F 46.8 °F 29.94 in Calm   4.0 mph 51% 0.00 in 394.00 W/m2
08:09 65.5 °F 46.9 °F 29.94 in East 1.0 mph 7.0 mph 51% 0.00 in 410.00 W/m2
08:15 65.7 °F 47.6 °F 29.94 in East 2.0 mph 4.0 mph 52% 0.00 in 425.00 W/m2
08:20 65.9 °F 48.8 °F 29.94 in Calm   7.0 mph 54% 0.00 in 436.00 W/m2
08:25 66.0 °F 48.4 °F 29.94 in Calm   7.0 mph 53% 0.00 in 455.00 W/m2
08:30 66.2 °F 48.1 °F 29.94 in Calm   6.0 mph 52% 0.00 in 473.00 W/m2
08:35 66.4 °F 49.3 °F 29.94 in Calm   4.0 mph 54% 0.00 in 489.00 W/m2
08:40 66.6 °F 49.0 °F 29.94 in Calm   1.0 mph 53% 0.00 in 504.00 W/m2
08:45 66.8 °F 49.6 °F 29.95 in ESE 1.0 mph 6.0 mph 54% 0.00 in 520.00 W/m2
08:50 67.1 °F 51.4 °F 29.95 in Calm   4.0 mph 57% 0.00 in 536.00 W/m2
08:55 67.3 °F 50.6 °F 29.95 in Calm   7.0 mph 55% 0.00 in 552.00 W/m2
09:00 67.6 °F 51.4 °F 29.95 in Calm   7.0 mph 56% 0.00 in 568.00 W/m2
09:05 67.9 °F 51.6 °F 29.95 in ESE 1.0 mph 4.0 mph 56% 0.00 in 580.00 W/m2
09:10 68.3 °F 52.5 °F 29.95 in Calm   6.0 mph 57% 0.00 in 596.00 W/m2
09:15 68.7 °F 52.4 °F 29.95 in Calm   5.0 mph 56% 0.00 in 612.00 W/m2
09:20 69.1 °F 51.3 °F 29.95 in East 2.0 mph 4.0 mph 53% 0.00 in 626.00 W/m2
09:25 69.5 °F 52.2 °F 29.95 in East 1.0 mph 4.0 mph 54% 0.00 in 640.00 W/m2
09:30 69.8 °F 51.9 °F 29.95 in Calm   7.0 mph 53% 0.00 in 656.00 W/m2
09:35 70.2 °F 51.8 °F 29.95 in Calm   8.0 mph 52% 0.00 in 668.00 W/m2
09:40 70.7 °F 52.8 °F 29.95 in Calm   4.0 mph 53% 0.00 in 682.00 W/m2
09:45 71.1 °F 52.1 °F 29.95 in East 1.0 mph 4.0 mph 51% 0.00 in 696.00 W/m2
09:50 71.5 °F 52.4 °F 29.95 in East 4.0 mph 5.0 mph 51% 0.00 in 710.00 W/m2
09:55 71.9 °F 51.7 °F 29.95 in Calm   5.0 mph 49% 0.00 in 722.00 W/m2
10:00 72.4 °F 49.9 °F 29.95 in Calm   2.0 mph 45% 0.00 in 735.00 W/m2
10:05 73.2 °F 52.9 °F 29.95 in East 1.0 mph 4.0 mph 49% 0.00 in 749.00 W/m2
10:10 74.0 °F 53.1 °F 29.95 in Calm   4.0 mph 48% 0.00 in 761.00 W/m2
10:15 74.8 °F 52.7 °F 29.95 in Calm   1.0 mph 46% 0.00 in 773.00 W/m2
10:20 75.7 °F 52.9 °F 29.95 in Calm   2.0 mph 45% 0.00 in 784.00 W/m2
10:25 76.2 °F 52.7 °F 29.95 in Calm   5.0 mph 44% 0.00 in 795.00 W/m2
10:30 76.6 °F 53.7 °F 29.95 in Calm   4.0 mph 45% 0.00 in 803.00 W/m2
10:35 76.9 °F 52.7 °F 29.95 in Calm   1.0 mph 43% 0.00 in 816.00 W/m2
10:41 77.2 °F 53.0 °F 29.95 in ESE 5.0 mph 6.0 mph 43% 0.00 in 824.00 W/m2
10:46 77.6 °F 52.1 °F 29.95 in Calm   6.0 mph 41% 0.00 in 837.00 W/m2
10:51 77.9 °F 53.0 °F 29.95 in Calm     42% 0.00 in 844.00 W/m2
10:56 78.2 °F 52.6 °F 29.95 in ESE 5.0 mph 7.0 mph 41% 0.00 in 856.00 W/m2
11:01 78.4 °F 50.0 °F 29.95 in Calm     37% 0.00 in 865.00 W/m2
11:06 78.5 °F 49.3 °F 29.95 in SE 1.0 mph 7.0 mph 36% 0.00 in 872.00 W/m2
11:11 78.7 °F 47.2 °F 29.96 in Calm   4.0 mph 33% 0.00 in 882.00 W/m2
11:16 78.9 °F 49.0 °F 29.96 in South 1.0 mph 4.0 mph 35% 0.00 in 889.00 W/m2
11:21 79.3 °F 46.9 °F 29.96 in Calm   1.0 mph 32% 0.00 in 896.00 W/m2
11:26 79.5 °F 48.7 °F 29.96 in Calm   8.0 mph 34% 0.00 in 905.00 W/m2
11:29 79.7 °F 49.7 °F 29.96 in SSW 7.0 mph 7.0 mph 35% 0.00 in 909.00 W/m2
11:34 80.0 °F 48.3 °F 29.96 in SSW 1.0 mph 6.0 mph 33% 0.00 in 914.00 W/m2
11:39 80.4 °F 50.3 °F 29.96 in Calm   7.0 mph 35% 0.00 in 916.00 W/m2
11:44 80.7 °F 49.8 °F 29.96 in SSW 2.0 mph 8.0 mph 34% 0.00 in 926.00 W/m2
11:49 81.0 °F 51.6 °F 29.96 in Calm   8.0 mph 36% 0.00 in 930.00 W/m2
11:54 81.4 °F 51.2 °F 29.96 in SW 1.0 mph 10.0 mph 35% 0.00 in 935.00 W/m2
11:59 81.6 °F 52.1 °F 29.96 in SW 10.0 mph 12.0 mph 36% 0.00 in 937.00 W/m2
12:04 81.7 °F 52.2 °F 29.96 in Calm   8.0 mph 36% 0.00 in 944.00 W/m2
12:09 82.0 °F 52.4 °F 29.96 in Calm   10.0 mph 36% 0.00 in 947.00 W/m2
12:14 82.0 °F 52.4 °F 29.96 in WSW 6.0 mph 9.0 mph 36% 0.00 in 949.00 W/m2
12:19 82.1 °F 51.0 °F 29.96 in Calm   10.0 mph 34% 0.00 in 958.00 W/m2
12:24 82.4 °F 51.2 °F 29.95 in Calm   7.0 mph 34% 0.00 in 956.00 W/m2
12:29 82.8 °F 52.4 °F 29.95 in Calm   9.0 mph 35% 0.00 in 962.00 W/m2
12:34 82.7 °F 49.0 °F 29.95 in WSW 5.0 mph 9.0 mph 31% 0.00 in 956.00 W/m2
12:39 82.8 °F 51.6 °F 29.96 in Calm     34% 0.00 in 962.00 W/m2
12:44 82.9 °F 50.9 °F 29.96 in SW 6.0 mph 11.0 mph 33% 0.00 in 967.00 W/m2
12:49 83.2 °F 50.3 °F 29.95 in SSW 1.0 mph 7.0 mph 32% 0.00 in 960.00 W/m2
12:54 83.8 °F 51.7 °F 29.95 in Calm   8.0 mph 33% 0.00 in 962.00 W/m2
12:59 84.1 °F 51.1 °F 29.95 in Calm   3.0 mph 32% 0.00 in 962.00 W/m2
13:04 84.2 °F 51.2 °F 29.95 in Calm   2.0 mph 32% 0.00 in 949.00 W/m2
13:10 84.5 °F 52.3 °F 29.95 in SSW 3.0 mph 7.0 mph 33% 0.00 in 963.00 W/m2
13:15 84.8 °F 51.7 °F 29.95 in WSW 7.0 mph 10.0 mph 32% 0.00 in 965.00 W/m2
13:20 85.0 °F 51.9 °F 29.95 in Calm   3.0 mph 32% 0.00 in 953.00 W/m2
13:25 84.6 °F 52.4 °F 29.95 in SSW 6.0 mph 9.0 mph 33% 0.00 in 958.00 W/m2
13:30 84.6 °F 51.5 °F 29.95 in SW 1.0 mph 9.0 mph 32% 0.00 in 954.00 W/m2
13:35 84.8 °F 54.1 °F 29.95 in Calm   2.0 mph 35% 0.00 in 886.00 W/m2
13:40 85.0 °F 54.3 °F 29.95 in Calm   9.0 mph 35% 0.00 in 951.00 W/m2
13:45 84.8 °F 54.9 °F 29.95 in SW 1.0 mph 4.0 mph 36% 0.00 in 935.00 W/m2
13:50 84.5 °F 54.6 °F 29.95 in WSW 6.0 mph 7.0 mph 36% 0.00 in 933.00 W/m2
13:55 84.2 °F 55.1 °F 29.95 in SW 1.0 mph 7.0 mph 37% 0.00 in 928.00 W/m2
14:00 84.2 °F 55.1 °F 29.95 in Calm   9.0 mph 37% 0.00 in 921.00 W/m2
14:05 84.5 °F 54.6 °F 29.95 in Calm   10.0 mph 36% 0.00 in 919.00 W/m2
14:10 84.8 °F 55.7 °F 29.95 in Calm   1.0 mph 37% 0.00 in 914.00 W/m2
14:15 84.6 °F 55.5 °F 29.95 in Calm     37% 0.00 in 911.00 W/m2
14:20 84.4 °F 53.8 °F 29.95 in Calm   8.0 mph 35% 0.00 in 881.00 W/m2
14:25 84.1 °F 54.3 °F 29.95 in SSW 1.0 mph 7.0 mph 36% 0.00 in 868.00 W/m2
14:30 84.2 °F 55.1 °F 29.95 in Calm   7.0 mph 37% 0.00 in 895.00 W/m2
14:40 84.0 °F 54.2 °F 29.95 in Calm   1.0 mph 36% 0.00 in 874.00 W/m2
14:45 84.1 °F 54.3 °F 29.95 in Calm   8.0 mph 36% 0.00 in 868.00 W/m2
14:50 84.2 °F 53.6 °F 29.95 in Calm   6.0 mph 35% 0.00 in 856.00 W/m2
14:55 84.1 °F 53.5 °F 29.95 in Calm   6.0 mph 35% 0.00 in 851.00 W/m2
15:00 84.2 °F 54.4 °F 29.94 in Calm   7.0 mph 36% 0.00 in 840.00 W/m2
15:05 84.2 °F 53.6 °F 29.94 in Calm   8.0 mph 35% 0.00 in 833.00 W/m2
15:10 84.3 °F 53.7 °F 29.94 in Calm   4.0 mph 35% 0.00 in 823.00 W/m2
15:15 84.1 °F 53.5 °F 29.94 in Calm   6.0 mph 35% 0.00 in 814.00 W/m2
15:20 83.8 °F 52.5 °F 29.94 in West 5.0 mph 7.0 mph 34% 0.00 in 803.00 W/m2
15:25 83.8 °F 54.0 °F 29.94 in Calm   7.0 mph 36% 0.00 in 795.00 W/m2
15:30 83.8 °F 53.3 °F 29.94 in Calm   3.0 mph 35% 0.00 in 784.00 W/m2
15:35 83.7 °F 52.4 °F 29.94 in Calm   3.0 mph 34% 0.00 in 772.00 W/m2
15:40 83.7 °F 53.2 °F 29.93 in West 2.0 mph 5.0 mph 35% 0.00 in 759.00 W/m2
15:45 83.7 °F 53.2 °F 29.93 in West 1.0 mph 7.0 mph 35% 0.00 in 747.00 W/m2
15:50 83.7 °F 53.2 °F 29.93 in Calm   5.0 mph 35% 0.00 in 735.00 W/m2
15:55 83.6 °F 53.8 °F 29.93 in Calm   4.0 mph 36% 0.00 in 724.00 W/m2
16:00 83.6 °F 53.8 °F 29.93 in West 7.0 mph 10.0 mph 36% 0.00 in 712.00 W/m2
16:05 83.6 °F 53.8 °F 29.93 in West 4.0 mph 8.0 mph 36% 0.00 in 696.00 W/m2
16:10 83.6 °F 53.1 °F 29.93 in WNW 3.0 mph 7.0 mph 35% 0.00 in 686.00 W/m2
16:15 83.5 °F 53.8 °F 29.93 in Calm   10.0 mph 36% 0.00 in 671.00 W/m2
16:20 83.4 °F 53.7 °F 29.93 in WSW 2.0 mph 7.0 mph 36% 0.00 in 659.00 W/m2
16:25 83.5 °F 53.8 °F 29.93 in Calm   7.0 mph 36% 0.00 in 645.00 W/m2
16:30 83.5 °F 54.5 °F 29.93 in WSW 1.0 mph 6.0 mph 37% 0.00 in 629.00 W/m2
16:35 83.5 °F 53.0 °F 29.93 in WSW 1.0 mph 6.0 mph 35% 0.00 in 617.00 W/m2
16:40 83.5 °F 53.8 °F 29.93 in NNW 3.0 mph 7.0 mph 36% 0.00 in 603.00 W/m2
16:42 83.6 °F 53.1 °F 29.93 in Calm   5.0 mph 35% 0.00 in 594.00 W/m2
16:47 83.5 °F 54.5 °F 29.93 in NW 3.0 mph 4.0 mph 37% 0.00 in 568.00 W/m2
16:52 83.3 °F 52.8 °F 29.93 in Calm     35% 0.00 in 570.00 W/m2
16:57 83.3 °F 52.0 °F 29.93 in NW 6.0 mph 7.0 mph 34% 0.00 in 555.00 W/m2
17:02 83.2 °F 52.7 °F 29.93 in Calm   2.0 mph 35% 0.00 in 536.00 W/m2
17:07 83.2 °F 51.9 °F 29.93 in NW 4.0 mph 6.0 mph 34% 0.00 in 522.00 W/m2
17:12 83.1 °F 52.6 °F 29.93 in NW 2.0 mph 5.0 mph 35% 0.00 in 503.00 W/m2
17:17 83.0 °F 53.3 °F 29.93 in NW 5.0 mph 5.0 mph 36% 0.00 in 490.00 W/m2
17:22 82.9 °F 52.5 °F 29.93 in NW 3.0 mph 5.0 mph 35% 0.00 in 475.00 W/m2
17:27 82.9 °F 53.2 °F 29.93 in Calm   4.0 mph 36% 0.00 in 459.00 W/m2
17:32 82.8 °F 53.2 °F 29.93 in NW 2.0 mph 5.0 mph 36% 0.00 in 443.00 W/m2
17:37 82.7 °F 51.5 °F 29.93 in NW 2.0 mph 5.0 mph 34% 0.00 in 427.00 W/m2
17:42 82.7 °F 53.1 °F 29.92 in NW 3.0 mph 3.0 mph 36% 0.00 in 411.00 W/m2
17:47 82.6 °F 53.0 °F 29.92 in Calm     36% 0.00 in 392.00 W/m2
17:52 82.6 °F 55.2 °F 29.92 in NW 3.0 mph 3.0 mph 39% 0.00 in 371.00 W/m2
17:57 82.5 °F 53.6 °F 29.92 in NW 1.0 mph 2.0 mph 37% 0.00 in 360.00 W/m2
18:02 82.4 °F 54.3 °F 29.92 in Calm   4.0 mph 38% 0.00 in 341.00 W/m2
18:07 82.4 °F 55.0 °F 29.92 in WSW 4.0 mph 7.0 mph 39% 0.00 in 330.00 W/m2
18:12 82.3 °F 55.6 °F 29.92 in Calm     40% 0.00 in 322.00 W/m2
18:17 82.2 °F 54.1 °F 29.92 in Calm   2.0 mph 38% 0.00 in 304.00 W/m2
18:22 82.1 °F 53.3 °F 29.92 in Calm   5.0 mph 37% 0.00 in 290.00 W/m2
18:27 82.0 °F 56.0 °F 29.92 in Calm   1.0 mph 41% 0.00 in 283.00 W/m2
18:32 81.9 °F 56.6 °F 29.92 in West 1.0 mph 2.0 mph 42% 0.00 in 271.00 W/m2
18:37 81.7 °F 55.7 °F 29.92 in Calm   4.0 mph 41% 0.00 in 262.00 W/m2
18:42 81.5 °F 54.2 °F 29.92 in West 3.0 mph 5.0 mph 39% 0.00 in 237.00 W/m2
18:47 81.4 °F 54.1 °F 29.92 in Calm     39% 0.00 in 225.00 W/m2
18:53 81.3 °F 56.0 °F 29.92 in Calm   4.0 mph 42% 0.00 in 202.00 W/m2
18:58 81.2 °F 56.6 °F 29.92 in Calm   4.0 mph 43% 0.00 in 178.00 W/m2
19:03 81.1 °F 56.5 °F 29.92 in West 2.0 mph 4.0 mph 43% 0.00 in 125.00 W/m2
19:08 80.9 °F 56.3 °F 29.92 in Calm   4.0 mph 43% 0.00 in 134.00 W/m2
19:13 80.5 °F 56.0 °F 29.92 in Calm     43% 0.00 in 113.00 W/m2
19:18 80.2 °F 57.0 °F 29.92 in Calm   5.0 mph 45% 0.00 in 95.00 W/m2
19:23 79.9 °F 56.7 °F 29.92 in Calm     45% 0.00 in 81.00 W/m2
19:28 79.4 °F 56.2 °F 29.92 in Calm     45% 0.00 in 58.00 W/m2
19:33 79.0 °F 57.1 °F 29.92 in Calm     47% 0.00 in 46.00 W/m2
19:38 78.5 °F 57.2 °F 29.92 in Calm     48% 0.00 in 47.00 W/m2
19:43 78.2 °F 56.3 °F 29.92 in Calm     47% 0.00 in 42.00 W/m2
19:48 77.7 °F 57.0 °F 29.92 in Calm     49% 0.00 in 39.00 W/m2
19:53 77.2 °F 56.6 °F 29.92 in Calm     49% 0.00 in 33.00 W/m2
19:58 76.9 °F 56.9 °F 29.92 in Calm     50% 0.00 in 26.00 W/m2
20:03 76.5 °F 55.9 °F 29.92 in Calm     49% 0.00 in 21.00 W/m2
20:08 76.0 °F 56.0 °F 29.92 in Calm     50% 0.00 in 16.00 W/m2
20:13 75.7 °F 56.3 °F 29.93 in Calm     51% 0.00 in 9.00 W/m2
20:18 75.3 °F 55.9 °F 29.93 in Calm     51% 0.00 in 7.00 W/m2
20:23 75.0 °F 55.7 °F 29.93 in Calm     51% 0.00 in 5.00 W/m2
20:28 74.6 °F 54.8 °F 29.93 in Calm     50% 0.00 in 0.00 W/m2
20:33 74.4 °F 54.6 °F 29.93 in Calm     50% 0.00 in 0.00 W/m2
20:38 74.1 °F 54.8 °F 29.93 in Calm     51% 0.00 in 0.00 W/m2
20:43 73.8 °F 55.1 °F 29.93 in Calm     52% 0.00 in 0.00 W/m2
20:48 73.5 °F 54.8 °F 29.93 in Calm     52% 0.00 in 0.00 W/m2
20:53 73.3 °F 54.6 °F 29.93 in Calm     52% 0.00 in 0.00 W/m2
20:58 73.0 °F 54.9 °F 29.93 in Calm     53% 0.00 in 0.00 W/m2
21:03 72.8 °F 54.7 °F 29.94 in Calm     53% 0.00 in 0.00 W/m2
21:08 72.6 °F 54.5 °F 29.94 in Calm     53% 0.00 in 0.00 W/m2
21:16 72.3 °F 54.2 °F 29.94 in Calm     53% 0.00 in 0.00 W/m2
21:21 72.1 °F 54.0 °F 29.94 in Calm     53% 0.00 in 0.00 W/m2
21:26 72.0 °F 54.5 °F 29.94 in Calm     54% 0.00 in 0.00 W/m2
21:31 71.8 °F 54.3 °F 29.94 in Calm     54% 0.00 in 0.00 W/m2
21:36 71.7 °F 54.2 °F 29.94 in Calm     54% 0.00 in 0.00 W/m2
21:41 71.6 °F 54.1 °F 29.94 in Calm     54% 0.00 in 0.00 W/m2
21:46 71.4 °F 54.4 °F 29.94 in Calm     55% 0.00 in 0.00 W/m2
21:51 71.3 °F 54.3 °F 29.94 in Calm     55% 0.00 in 0.00 W/m2
21:56 71.1 °F 54.1 °F 29.94 in Calm     55% 0.00 in 0.00 W/m2
22:01 71.1 °F 54.6 °F 29.94 in Calm     56% 0.00 in 0.00 W/m2
22:06 71.0 °F 54.5 °F 29.94 in Calm     56% 0.00 in 0.00 W/m2
22:11 70.9 °F 54.0 °F 29.94 in Calm     55% 0.00 in 0.00 W/m2
22:16 70.7 °F 54.2 °F 29.94 in Calm     56% 0.00 in 0.00 W/m2
22:21 70.6 °F 54.2 °F 29.94 in Calm     56% 0.00 in 0.00 W/m2
22:26 70.5 °F 54.1 °F 29.94 in Calm     56% 0.00 in 0.00 W/m2
22:31 70.4 °F 54.0 °F 29.94 in Calm     56% 0.00 in 0.00 W/m2
22:36 70.3 °F 54.4 °F 29.94 in Calm     57% 0.00 in 0.00 W/m2
22:41 70.3 °F 54.4 °F 29.94 in Calm     57% 0.00 in 0.00 W/m2
22:46 70.2 °F 54.8 °F 29.94 in Calm   2.0 mph 58% 0.00 in 0.00 W/m2
22:51 70.2 °F 54.8 °F 29.94 in Calm   1.0 mph 58% 0.00 in 0.00 W/m2
22:56 70.1 °F 54.7 °F 29.94 in Calm   1.0 mph 58% 0.00 in 0.00 W/m2
23:01 70.1 °F 54.7 °F 29.94 in Calm   1.0 mph 58% 0.00 in 0.00 W/m2
23:11 70.0 °F 54.6 °F 29.94 in Calm   1.0 mph 58% 0.00 in 0.00 W/m2
23:16 70.0 °F 54.6 °F 29.94 in ESE 1.0 mph 1.0 mph 58% 0.00 in 0.00 W/m2
23:21 69.9 °F 54.5 °F 29.94 in Calm   2.0 mph 58% 0.00 in 0.00 W/m2
23:26 69.9 °F 54.9 °F 29.94 in ESE 1.0 mph 2.0 mph 59% 0.00 in 0.00 W/m2
23:31 69.8 °F 54.8 °F 29.94 in ESE 4.0 mph 4.0 mph 59% 0.00 in 0.00 W/m2
23:36 69.8 °F 54.8 °F 29.94 in ESE 1.0 mph 4.0 mph 59% 0.00 in 0.00 W/m2
23:41 69.8 °F 54.8 °F 29.93 in Calm   4.0 mph 59% 0.00 in 0.00 W/m2
23:46 69.7 °F 54.8 °F 29.93 in East 1.0 mph 2.0 mph 59% 0.00 in 0.00 W/m2
23:51 69.7 °F 54.8 °F 29.93 in ESE 1.0 mph 7.0 mph 59% 0.00 in 0.00 W/m2
23:57 69.6 °F 54.7 °F 29.93 in Calm   5.0 mph 59% 0.00 in 0.00 W/m2
Foresthill Weather
 WU-history PHP script courtesy of   Juneau County Weather.
powered by Cumulus v1.9.3 (1059)
Ambient Weather VWS v14.00
Top Contact Website Map Copyright © 2007 - 2018 Foresthillweather.com Never base important decisions on this or any weather information obtained from the Internet